createdAt,value
2018-07-25T00:02:20.987Z,24.00
2018-07-25T00:04:50.215Z,24.10
2018-07-25T00:07:19.470Z,24.30
2018-07-25T00:09:48.699Z,24.20
2018-07-25T00:12:17.967Z,24.40
2018-07-25T00:14:47.142Z,24.20
2018-07-25T00:17:16.349Z,24.20
2018-07-25T00:22:14.641Z,24.00
2018-07-25T00:24:43.839Z,24.20
2018-07-25T00:27:13.157Z,24.20
2018-07-25T00:35:11.491Z,24.20
2018-07-25T00:37:40.658Z,24.10
2018-07-25T00:40:10.279Z,23.70
2018-07-25T00:42:39.978Z,23.90
2018-07-25T00:45:19.384Z,24.00
2018-07-25T00:47:48.573Z,23.90
2018-07-25T00:50:17.741Z,23.80
2018-07-25T00:52:46.978Z,23.90
2018-07-25T00:55:16.190Z,23.90
2018-07-25T00:57:45.379Z,23.80
2018-07-25T01:00:14.673Z,23.80
2018-07-25T01:02:43.945Z,23.60
2018-07-25T01:05:13.416Z,23.60
2018-07-25T01:07:42.775Z,23.70
2018-07-25T01:10:11.955Z,23.70
2018-07-25T01:12:41.346Z,23.70
2018-07-25T01:15:11.263Z,23.60
2018-07-25T01:17:40.437Z,23.60
2018-07-25T01:20:09.923Z,23.10
2018-07-25T01:22:39.103Z,23.30
2018-07-25T01:25:08.399Z,23.20
2018-07-25T01:27:38.230Z,22.90
2018-07-25T01:30:07.419Z,22.70
2018-07-25T01:32:36.609Z,22.40
2018-07-25T01:35:05.864Z,22.30
2018-07-25T01:37:35.080Z,22.90
2018-07-25T01:40:04.266Z,22.60
2018-07-25T01:42:33.502Z,22.20
2018-07-25T01:45:18.786Z,22.00
2018-07-25T01:50:17.038Z,22.70
2018-07-25T01:55:47.457Z,22.90
2018-07-25T01:58:16.665Z,22.80
2018-07-25T02:00:48.325Z,23.00
2018-07-25T02:03:18.854Z,23.00
2018-07-25T02:05:48.176Z,22.90
2018-07-25T02:08:22.002Z,22.60
2018-07-25T02:10:51.236Z,22.30
2018-07-25T02:13:20.702Z,22.20
2018-07-25T02:15:49.903Z,22.20
2018-07-25T02:18:19.381Z,21.80
2018-07-25T02:21:17.418Z,22.10
2018-07-25T02:23:46.646Z,22.40
2018-07-25T02:26:15.822Z,22.50
2018-07-25T02:28:45.008Z,22.00
2018-07-25T02:31:14.217Z,21.50
2018-07-25T02:33:48.790Z,21.50
2018-07-25T02:36:18.052Z,21.60
2018-07-25T02:38:47.348Z,21.40
2018-07-25T02:41:16.571Z,21.60
2018-07-25T02:43:45.845Z,21.90
2018-07-25T02:46:15.058Z,22.20
2018-07-25T02:48:44.234Z,22.30
2018-07-25T02:51:13.451Z,21.90
2018-07-25T02:53:42.653Z,21.70
2018-07-25T02:56:11.834Z,21.30
2018-07-25T02:58:41.071Z,21.00
2018-07-25T03:01:10.283Z,21.20
2018-07-25T03:09:09.923Z,20.60
2018-07-25T03:11:39.549Z,20.50
2018-07-25T03:14:08.873Z,20.60
2018-07-25T03:16:38.182Z,20.90
2018-07-25T03:19:07.365Z,21.20
2018-07-25T03:21:36.594Z,21.00
2018-07-25T03:24:05.785Z,21.10
2018-07-25T03:26:34.966Z,21.30
2018-07-25T03:29:04.215Z,21.50
2018-07-25T03:34:33.142Z,20.90
2018-07-25T03:37:02.318Z,20.60
2018-07-25T03:42:00.615Z,20.50
2018-07-25T03:44:29.918Z,20.80
2018-07-25T03:46:59.107Z,21.00
2018-07-25T03:49:28.282Z,20.90
2018-07-25T03:51:57.494Z,21.40
2018-07-25T03:54:26.686Z,21.50
2018-07-25T03:56:55.901Z,21.50
2018-07-25T03:59:25.110Z,21.60
2018-07-25T04:04:38.855Z,20.70
2018-07-25T04:07:08.053Z,20.60
2018-07-25T04:09:37.258Z,20.80
2018-07-25T04:14:35.568Z,20.50
2018-07-25T04:17:04.755Z,20.50
2018-07-25T04:19:34.007Z,20.90
2018-07-25T04:22:03.230Z,20.60
2018-07-25T04:24:32.480Z,20.40
2018-07-25T04:27:01.778Z,20.40
2018-07-25T04:29:30.962Z,20.30
2018-07-25T04:32:19.151Z,20.40
2018-07-25T04:34:48.419Z,20.40
2018-07-25T04:37:17.611Z,20.30
2018-07-25T04:39:46.807Z,20.20
2018-07-25T04:42:19.681Z,20.30
2018-07-25T04:44:48.866Z,20.20
2018-07-25T04:47:18.098Z,20.30
2018-07-25T04:49:47.728Z,20.40
2018-07-25T04:52:17.382Z,20.40
2018-07-25T04:54:46.840Z,20.40
2018-07-25T04:59:45.127Z,20.60
2018-07-25T05:02:20.477Z,20.60
2018-07-25T05:04:49.689Z,20.50
2018-07-25T05:07:19.042Z,20.40
2018-07-25T05:10:17.631Z,20.40
2018-07-25T05:12:46.903Z,20.40
2018-07-25T05:15:16.155Z,20.80
2018-07-25T05:17:45.416Z,20.80
2018-07-25T05:20:14.663Z,20.60
2018-07-25T05:22:44.922Z,20.50
2018-07-25T05:25:14.094Z,20.70
2018-07-25T05:27:43.313Z,20.90
2018-07-25T05:30:12.557Z,20.80
2018-07-25T05:32:41.747Z,20.80
2018-07-25T05:35:10.978Z,20.90
2018-07-25T05:37:40.163Z,21.20
2018-07-25T05:40:09.427Z,21.10
2018-07-25T05:42:38.698Z,21.10
2018-07-25T05:45:07.955Z,21.00
2018-07-25T05:47:37.227Z,21.10
2018-07-25T05:50:06.996Z,21.10
2018-07-25T05:52:36.234Z,21.00
2018-07-25T05:55:05.430Z,21.20
2018-07-25T05:57:35.197Z,21.10
2018-07-25T06:00:05.138Z,21.20
2018-07-25T06:02:34.399Z,21.20
2018-07-25T06:05:03.611Z,21.20
2018-07-25T06:07:33.135Z,21.30
2018-07-25T06:10:02.334Z,21.30
2018-07-25T06:12:31.666Z,21.60
2018-07-25T06:15:00.856Z,21.50
2018-07-25T06:17:30.053Z,21.60
2018-07-25T06:19:59.353Z,21.70
2018-07-25T06:22:28.574Z,21.70
2018-07-25T06:24:57.946Z,21.70
2018-07-25T06:27:27.156Z,21.70
2018-07-25T06:29:56.410Z,21.70
2018-07-25T06:32:25.596Z,21.80
2018-07-25T06:37:46.159Z,21.90
2018-07-25T06:40:15.378Z,22.10
2018-07-25T06:42:44.621Z,22.20
2018-07-25T06:47:42.848Z,22.20
2018-07-25T06:50:19.723Z,22.30
2018-07-25T06:52:48.974Z,22.40
2018-07-25T06:57:47.213Z,22.50
2018-07-25T07:00:16.467Z,22.50
2018-07-25T07:03:17.602Z,22.50
2018-07-25T07:05:46.804Z,22.50
2018-07-25T07:08:16.002Z,22.60
2018-07-25T07:10:45.223Z,22.70
2018-07-25T07:13:14.460Z,22.80
2018-07-25T07:15:43.709Z,22.90
2018-07-25T07:18:12.927Z,22.90
2018-07-25T07:20:42.203Z,23.00
2018-07-25T07:23:11.395Z,23.10
2018-07-25T07:25:40.634Z,23.20
2018-07-25T07:28:09.918Z,23.30
2018-07-25T07:30:39.315Z,23.40
2018-07-25T07:33:08.644Z,23.70
2018-07-25T07:35:37.872Z,23.60
2018-07-25T07:38:07.219Z,23.70
2018-07-25T07:40:36.431Z,23.60
2018-07-25T07:43:05.785Z,23.80
2018-07-25T07:45:35.012Z,23.90
2018-07-25T07:48:04.206Z,24.00
2018-07-25T07:50:33.716Z,24.00
2018-07-25T07:53:02.938Z,24.00
2018-07-25T07:55:32.226Z,23.90
2018-07-25T07:58:02.280Z,24.00
2018-07-25T08:00:31.504Z,24.10
2018-07-25T08:03:00.686Z,24.20
2018-07-25T08:05:29.923Z,24.20
2018-07-25T08:07:59.148Z,24.20
2018-07-25T08:10:28.373Z,24.50
2018-07-25T08:12:57.627Z,24.70
2018-07-25T08:15:26.851Z,24.40
2018-07-25T08:17:56.096Z,24.60
2018-07-25T08:20:25.247Z,24.50
2018-07-25T08:22:54.471Z,24.40
2018-07-25T08:25:23.810Z,24.80
2018-07-25T08:27:53.495Z,25.20
2018-07-25T08:30:22.686Z,25.20
2018-07-25T08:32:51.937Z,24.90
2018-07-25T08:35:21.204Z,25.20
2018-07-25T08:37:50.386Z,25.20
2018-07-25T08:40:19.766Z,25.10
2018-07-25T08:42:49.024Z,25.30
2018-07-25T08:45:18.236Z,25.30
2018-07-25T08:47:47.444Z,25.50
2018-07-25T08:50:16.685Z,25.60
2018-07-25T08:52:45.898Z,25.70
2018-07-25T08:55:21.587Z,25.90
2018-07-25T08:57:50.871Z,25.70
2018-07-25T09:00:20.158Z,25.70
2018-07-25T09:02:49.330Z,25.80
2018-07-25T09:05:18.536Z,26.00
2018-07-25T09:07:47.784Z,26.30
2018-07-25T09:10:16.987Z,26.20
2018-07-25T09:12:46.266Z,26.50
2018-07-25T09:15:15.437Z,26.60
2018-07-25T09:17:44.639Z,26.60
2018-07-25T09:20:13.975Z,26.80
2018-07-25T09:22:43.266Z,26.70
2018-07-25T09:25:12.573Z,26.60
2018-07-25T09:27:41.728Z,26.80
2018-07-25T09:30:10.959Z,27.00
2018-07-25T09:32:40.183Z,26.80
2018-07-25T09:35:09.456Z,26.70
2018-07-25T09:37:38.688Z,27.00
2018-07-25T09:40:07.927Z,27.40
2018-07-25T09:42:37.175Z,27.30
2018-07-25T09:47:36.502Z,27.50
2018-07-25T09:50:06.565Z,27.60
2018-07-25T09:52:35.985Z,27.60
2018-07-25T09:55:05.915Z,27.60
2018-07-25T09:57:35.431Z,27.80
2018-07-25T10:00:07.859Z,28.00
2018-07-25T10:02:37.599Z,28.10
2018-07-25T10:05:07.407Z,28.10
2018-07-25T10:07:36.728Z,28.20
2018-07-25T10:10:07.006Z,27.80
2018-07-25T10:12:36.320Z,28.00
2018-07-25T10:15:05.800Z,28.10
2018-07-25T10:17:35.006Z,27.90
2018-07-25T10:20:04.667Z,28.10
2018-07-25T10:22:33.888Z,28.50
2018-07-25T10:25:03.136Z,28.60
2018-07-25T10:27:32.454Z,28.70
2018-07-25T10:30:01.630Z,28.70
2018-07-25T10:32:30.826Z,28.90
2018-07-25T10:35:00.094Z,28.70
2018-07-25T10:37:29.337Z,28.60
2018-07-25T10:39:58.575Z,29.00
2018-07-25T10:42:27.781Z,29.10
2018-07-25T10:44:57.127Z,29.10
2018-07-25T10:47:26.341Z,29.00
2018-07-25T10:49:55.566Z,29.20
2018-07-25T10:52:24.924Z,29.20
2018-07-25T10:54:54.147Z,29.40
2018-07-25T10:57:23.414Z,29.50
2018-07-25T10:59:53.418Z,29.40
2018-07-25T11:02:22.664Z,28.90
2018-07-25T11:04:51.880Z,28.90
2018-07-25T11:07:21.103Z,29.10
2018-07-25T11:10:16.962Z,29.60
2018-07-25T11:12:46.186Z,29.00
2018-07-25T11:17:50.076Z,29.70
2018-07-25T11:20:19.295Z,29.80
2018-07-25T11:22:48.579Z,30.00
2018-07-25T11:25:17.795Z,29.80
2018-07-25T11:30:16.091Z,29.50
2018-07-25T11:32:45.362Z,29.20
2018-07-25T11:35:14.497Z,29.70
2018-07-25T11:37:43.731Z,29.70
2018-07-25T11:40:12.948Z,29.30
2018-07-25T11:45:42.938Z,29.30
2018-07-25T11:48:12.199Z,29.80
2018-07-25T11:50:41.404Z,29.70
2018-07-25T11:53:10.632Z,29.70
2018-07-25T11:55:39.934Z,29.80
2018-07-25T11:58:09.118Z,30.10
2018-07-25T12:00:38.363Z,30.30
2018-07-25T12:03:07.596Z,30.10
2018-07-25T12:08:37.211Z,30.00
2018-07-25T12:11:07.297Z,30.20
2018-07-25T12:13:36.763Z,30.60
2018-07-25T12:16:06.215Z,30.50
2018-07-25T12:18:35.446Z,30.60
2018-07-25T12:21:04.725Z,30.60
2018-07-25T12:23:33.995Z,30.40
2018-07-25T12:26:03.299Z,30.50
2018-07-25T12:28:32.550Z,30.20
2018-07-25T12:31:02.135Z,29.80
2018-07-25T12:33:31.436Z,30.00
2018-07-25T12:36:00.748Z,30.20
2018-07-25T12:38:30.134Z,30.30
2018-07-25T12:40:59.365Z,30.50
2018-07-25T12:43:28.655Z,30.50
2018-07-25T12:45:57.963Z,30.80
2018-07-25T12:48:27.325Z,31.00
2018-07-25T12:50:56.546Z,30.90
2018-07-25T12:53:25.754Z,30.90
2018-07-25T12:55:54.982Z,31.20
2018-07-25T12:58:24.194Z,31.10
2018-07-25T13:01:19.230Z,31.00
2018-07-25T13:03:48.476Z,30.60
2018-07-25T13:06:21.156Z,30.80
2018-07-25T13:08:50.409Z,31.00
2018-07-25T13:11:19.725Z,31.30
2018-07-25T13:13:48.963Z,31.40
2018-07-25T13:16:18.291Z,31.50
2018-07-25T13:18:47.536Z,31.50
2018-07-25T13:21:16.774Z,31.50
2018-07-25T13:26:46.439Z,31.70
2018-07-25T13:29:15.660Z,32.10
2018-07-25T13:31:44.926Z,32.00
2018-07-25T13:34:14.163Z,32.10
2018-07-25T13:36:43.459Z,31.90
2018-07-25T13:39:13.151Z,31.90
2018-07-25T13:41:42.377Z,32.10
2018-07-25T13:44:11.592Z,31.50
2018-07-25T13:46:40.810Z,31.30
2018-07-25T13:49:10.043Z,31.90
2018-07-25T13:51:39.327Z,32.00
2018-07-25T13:54:08.633Z,31.90
2018-07-25T13:56:37.967Z,31.70
2018-07-25T13:59:07.289Z,31.60
2018-07-25T14:01:36.562Z,31.70
2018-07-25T14:04:05.803Z,32.00
2018-07-25T14:06:35.127Z,32.30
2018-07-25T14:09:06.311Z,32.30
2018-07-25T14:14:04.698Z,32.70
2018-07-25T14:16:33.971Z,32.60
2018-07-25T14:19:03.265Z,32.00
2018-07-25T14:21:32.531Z,32.40
2018-07-25T14:24:01.919Z,32.50
2018-07-25T14:26:31.071Z,32.70
2018-07-25T14:29:00.389Z,32.90
2018-07-25T14:31:29.562Z,33.20
2018-07-25T14:33:58.791Z,32.80
2018-07-25T14:36:28.067Z,32.80
2018-07-25T14:38:57.314Z,33.10
2018-07-25T14:41:26.556Z,32.30
2018-07-25T14:43:55.803Z,32.90
2018-07-25T14:46:25.055Z,33.00
2018-07-25T14:48:54.289Z,33.10
2018-07-25T14:51:23.650Z,33.50
2018-07-25T14:53:52.859Z,33.50
2018-07-25T14:56:22.088Z,33.40
2018-07-25T14:58:51.310Z,33.10
2018-07-25T15:01:22.682Z,33.60
2018-07-25T15:03:51.935Z,33.70
2018-07-25T15:06:21.164Z,33.70
2018-07-25T15:08:50.443Z,33.40
2018-07-25T15:11:19.643Z,33.30
2018-07-25T15:13:48.855Z,33.50
2018-07-25T15:16:18.142Z,33.50
2018-07-25T15:18:47.373Z,33.40
2018-07-25T15:21:16.644Z,33.80
2018-07-25T15:23:59.412Z,33.60
2018-07-25T15:26:29.354Z,33.60
2018-07-25T15:28:59.763Z,33.70
2018-07-25T15:31:29.006Z,34.20
2018-07-25T15:33:58.294Z,34.20
2018-07-25T15:36:39.944Z,34.40
2018-07-25T15:39:26.532Z,34.40
2018-07-25T15:41:57.090Z,34.70
2018-07-25T15:44:27.118Z,34.40
2018-07-25T15:46:56.381Z,35.20
2018-07-25T15:49:25.665Z,34.50
2018-07-25T15:51:54.899Z,34.80
2018-07-25T15:54:24.147Z,34.60
2018-07-25T15:56:53.444Z,34.60
2018-07-25T15:59:22.734Z,35.10
2018-07-25T16:01:52.066Z,35.50
2018-07-25T16:04:21.279Z,35.50
2018-07-25T16:06:50.519Z,35.40
2018-07-25T16:09:19.872Z,35.40
2018-07-25T16:12:18.254Z,35.60
2018-07-25T16:14:47.503Z,35.60
2018-07-25T16:17:16.731Z,35.70
2018-07-25T16:19:45.948Z,35.80
2018-07-25T16:22:15.195Z,35.50
2018-07-25T16:24:44.492Z,36.20
2018-07-25T16:27:13.935Z,36.40
2018-07-25T16:29:43.138Z,36.40
2018-07-25T16:32:19.622Z,36.40
2018-07-25T16:34:48.831Z,36.40
2018-07-25T16:37:18.088Z,36.70
2018-07-25T16:39:47.285Z,36.10
2018-07-25T16:42:16.589Z,36.20
2018-07-25T16:44:45.898Z,36.90
2018-07-25T16:47:15.098Z,37.00
2018-07-25T16:49:44.330Z,37.00
2018-07-25T16:52:13.709Z,36.60
2018-07-25T16:54:43.112Z,36.80
2018-07-25T16:57:12.358Z,36.80
2018-07-25T16:59:41.590Z,36.50
2018-07-25T17:02:20.677Z,36.70
2018-07-25T17:07:20.770Z,37.00
2018-07-25T17:09:50.294Z,36.70
2018-07-25T17:12:19.614Z,36.90
2018-07-25T17:14:48.916Z,37.40
2018-07-25T17:17:18.188Z,37.70
2018-07-25T17:19:47.429Z,37.60
2018-07-25T17:22:16.735Z,37.60
2018-07-25T17:24:46.130Z,37.10
2018-07-25T17:27:15.433Z,37.10
2018-07-25T17:32:19.483Z,37.70
2018-07-25T17:35:17.426Z,37.70
2018-07-25T17:37:46.686Z,37.60
2018-07-25T17:40:16.471Z,37.40
2018-07-25T17:42:45.746Z,37.10
2018-07-25T17:45:15.092Z,36.90
2018-07-25T17:47:44.486Z,37.40
2018-07-25T17:50:13.765Z,37.40
2018-07-25T17:52:43.059Z,37.20
2018-07-25T17:55:12.290Z,37.00
2018-07-25T17:57:41.540Z,37.00
2018-07-25T18:00:12.112Z,36.90
2018-07-25T18:05:41.818Z,36.30
2018-07-25T18:08:11.085Z,36.30
2018-07-25T18:10:40.451Z,36.40
2018-07-25T18:13:15.148Z,36.40
2018-07-25T18:15:44.461Z,36.20
2018-07-25T18:18:13.680Z,36.20
2018-07-25T18:20:42.894Z,36.10
2018-07-25T18:23:12.167Z,36.00
2018-07-25T18:25:41.408Z,36.00
2018-07-25T18:28:10.794Z,35.90
2018-07-25T18:30:40.024Z,35.90
2018-07-25T18:33:09.267Z,35.90
2018-07-25T18:35:38.566Z,35.70
2018-07-25T18:38:07.754Z,35.50
2018-07-25T18:40:37.079Z,35.30
2018-07-25T18:43:06.349Z,35.10
2018-07-25T18:45:35.677Z,34.80
2018-07-25T18:48:05.343Z,34.60
2018-07-25T18:50:35.490Z,34.40
2018-07-25T18:53:04.993Z,34.50
2018-07-25T18:55:34.302Z,34.60
2018-07-25T18:58:03.529Z,34.30
2018-07-25T19:03:20.962Z,34.00
2018-07-25T19:05:50.155Z,34.10
2018-07-25T19:08:19.504Z,34.00
2018-07-25T19:10:48.682Z,33.80
2018-07-25T19:13:26.278Z,33.60
2018-07-25T19:15:55.480Z,33.30
2018-07-25T19:18:24.800Z,33.20
2018-07-25T19:20:54.055Z,33.10
2018-07-25T19:23:23.344Z,33.10
2018-07-25T19:25:52.607Z,33.00
2018-07-25T19:28:21.834Z,32.90
2018-07-25T19:30:51.342Z,32.70
2018-07-25T19:33:20.574Z,32.60
2018-07-25T19:35:49.812Z,32.50
2018-07-25T19:38:19.096Z,32.50
2018-07-25T19:41:17.890Z,32.30
2018-07-25T19:43:47.237Z,32.30
2018-07-25T19:46:19.328Z,32.10
2018-07-25T19:48:48.558Z,32.10
2018-07-25T19:51:17.746Z,32.20
2018-07-25T19:53:46.981Z,32.20
2018-07-25T19:56:16.216Z,31.70
2018-07-25T20:01:20.902Z,31.00
2018-07-25T20:03:50.170Z,31.20
2018-07-25T20:06:19.383Z,31.20
2018-07-25T20:09:17.934Z,30.80
2018-07-25T20:11:47.139Z,31.10
2018-07-25T20:14:21.869Z,31.30
2018-07-25T20:17:17.754Z,31.30
2018-07-25T20:19:47.039Z,31.20
2018-07-25T20:22:19.924Z,31.00
2018-07-25T20:24:49.227Z,31.00
2018-07-25T20:27:18.432Z,31.00
2018-07-25T20:29:47.665Z,31.00
2018-07-25T20:32:20.082Z,30.80
2018-07-25T20:34:49.396Z,30.90
2018-07-25T20:37:20.334Z,30.60
2018-07-25T20:39:49.556Z,30.50
2018-07-25T20:42:18.827Z,30.50
2018-07-25T20:45:17.676Z,30.40
2018-07-25T20:47:47.026Z,30.40
2018-07-25T20:50:16.271Z,30.00
2018-07-25T20:55:45.907Z,29.50
2018-07-25T20:58:15.074Z,29.60
2018-07-25T21:00:44.285Z,29.70
2018-07-25T21:03:13.536Z,29.60
2018-07-25T21:05:42.718Z,29.30
2018-07-25T21:08:19.815Z,29.40
2018-07-25T21:11:17.792Z,29.10
2018-07-25T21:19:47.210Z,28.50
2018-07-25T21:22:16.477Z,28.60
2018-07-25T21:24:45.765Z,28.40
2018-07-25T21:27:15.000Z,28.40
2018-07-25T21:29:44.192Z,28.40
2018-07-25T21:32:19.714Z,28.40
2018-07-25T21:34:48.890Z,28.40
2018-07-25T21:37:18.082Z,28.40
2018-07-25T21:39:47.324Z,28.40
2018-07-25T21:42:16.494Z,28.30
2018-07-25T21:44:45.713Z,28.30
2018-07-25T21:47:14.951Z,28.20
2018-07-25T21:49:44.131Z,28.20
2018-07-25T21:52:13.316Z,28.00
2018-07-25T21:54:42.543Z,28.10
2018-07-25T21:57:11.968Z,27.90
2018-07-25T21:59:41.359Z,27.40
2018-07-25T22:02:20.982Z,27.00
2018-07-25T22:04:50.227Z,26.90
2018-07-25T22:07:19.418Z,27.40
2018-07-25T22:09:48.629Z,27.40
2018-07-25T22:12:17.899Z,27.30
2018-07-25T22:14:47.067Z,27.40
2018-07-25T22:17:16.275Z,27.30
2018-07-25T22:19:45.455Z,27.20
2018-07-25T22:22:14.690Z,27.00
2018-07-25T22:24:43.908Z,26.60
2018-07-25T22:27:13.079Z,26.00
2018-07-25T22:29:42.254Z,25.90
2018-07-25T22:32:21.112Z,26.30
2018-07-25T22:34:50.286Z,25.90
2018-07-25T22:37:19.522Z,26.20
2018-07-25T22:39:48.784Z,26.30
2018-07-25T22:42:17.992Z,26.30
2018-07-25T22:44:47.151Z,26.20
2018-07-25T22:47:16.368Z,26.30
2018-07-25T22:49:45.543Z,26.40
2018-07-25T22:52:14.728Z,26.30
2018-07-25T22:54:43.946Z,25.50
2018-07-25T22:57:13.179Z,24.90
2018-07-25T22:59:42.427Z,24.60
2018-07-25T23:02:20.155Z,25.20
2018-07-25T23:05:18.345Z,25.60
2018-07-25T23:07:47.632Z,25.70
2018-07-25T23:10:16.868Z,25.70
2018-07-25T23:12:46.059Z,25.70
2018-07-25T23:15:15.270Z,25.70
2018-07-25T23:17:44.436Z,25.70
2018-07-25T23:20:13.608Z,25.70
2018-07-25T23:22:56.103Z,25.60
2018-07-25T23:25:25.625Z,25.60
2018-07-25T23:27:56.309Z,25.50
2018-07-25T23:30:26.465Z,25.40
2018-07-25T23:32:55.618Z,25.20
2018-07-25T23:35:24.813Z,24.70
2018-07-25T23:37:53.953Z,24.60
2018-07-25T23:40:23.103Z,25.00
2018-07-25T23:42:52.309Z,24.90
2018-07-25T23:45:21.473Z,25.10
2018-07-25T23:47:50.630Z,25.00
2018-07-25T23:52:48.714Z,24.60
2018-07-25T23:55:21.246Z,24.10
2018-07-25T23:57:50.616Z,24.20
